2. Juli 2022

Uhrzeit Code Wetter Temp. Sichtweite Wolkendecke Wind METAR/SPECI
12:00 pm
V
66 °F 30 mi 25.000 ft 100° 100° 7 kt METAR CYYJ 021900Z 10007KT 070V130 30SM FEW028 BKN250 19/12 A2994 RMK CU1CI7 CU TR SLP141 DENSITY ALT 500FT
11:00 am
V
63 °F 30 mi 25.000 ft 130° 130° 8 kt METAR CYYJ 021800Z 13008KT 30SM FEW025 BKN250 17/11 A2996 RMK CU1CI6 CU TR SLP146 DENSITY ALT 300FT
10:00 am
V
61 °F 30 mi 25.000 ft 110° 110° 6 kt METAR CYYJ 021700Z 11006KT 30SM FEW035 BKN250 16/11 A2996 RMK SC1CI6 SC TR SLP148 DENSITY ALT 200FT
9:00 am
V
61 °F 30 mi - 120° 120° 6 kt METAR CYYJ 021600Z 12006KT 30SM FEW030 SCT250 16/12 A2997 RMK SC1CI4 SC TR SLP151 DENSITY ALT 100FT
8:00 am
V
61 °F 30 mi 25.000 ft 280° 280° 3 kt METAR CYYJ 021500Z 28003KT 240V310 30SM FEW028 FEW050 BKN250 16/12 A2998 RMK SC1SC1CI5 SC TR SC TR SLP153 DENSITY ALT 200FT
7:00 am
V
59 °F 30 mi - 290° 290° 6 kt METAR CYYJ 021400Z 29006KT 30SM FEW050 FEW250 15/13 A2997 RMK SC1CI2 SC TR SLP152
6:00 am
V
55 °F 30 mi - 280° 280° 5 kt METAR CYYJ 021300Z 28005KT 30SM FEW240 13/13 A2997 RMK CI1 CI TR SLP152
5:00 am
V
55 °F 30 mi - 250° 250° 6 kt METAR CYYJ 021200Z 25006KT 30SM FEW240 13/12 A2997 RMK CI2 SLP152
4:00 am
V
57 °F 20 mi - 290° 290° 8 kt METAR CYYJ 021100Z 29008KT 20SM FEW210 SCT240 14/12 A2997 RMK CI1CI2 SLP151
3:00 am
V
59 °F 20 mi - 290° 290° 9 kt METAR CYYJ 021000Z 29009KT 20SM SKC 15/12 A2997 RMK SLP151
2:00 am
V
59 °F 20 mi - 290° 290° 10 kt METAR CYYJ 020900Z 29010KT 20SM SKC 15/12 A2997 RMK SLP151 DENSITY ALT 100FT
1:00 am
V
61 °F 30 mi - 290° 290° 11 kt METAR CYYJ 020800Z 29011KT 30SM SKC 16/12 A2997 RMK SLP151 DENSITY ALT 200FT
12:00 am
V
63 °F 20 mi - 280° 280° 11 kt METAR CYYJ 020700Z 28011KT 20SM SKC 17/11 A2997 RMK SLP152 DENSITY ALT 300FT

1. Juli 2022

Uhrzeit Code Wetter Temp. Sichtweite Wolkendecke Wind METAR/SPECI
11:00 pm
V
64 °F 20 mi - 290° 290° 10 kt METAR CYYJ 020600Z 29010KT 20SM SKC 18/11 A2997 RMK SLP152 DENSITY ALT 400FT
10:00 pm
V
64 °F 30 mi - 260° 260° 4 kt METAR CYYJ 020500Z 26004KT 30SM SKC 18/11 A2998 RMK SLP153 DENSITY ALT 400FT
9:00 pm
V
72 °F 30 mi - 250° 250° 4 kt METAR CYYJ 020400Z 25004KT 30SM FEW120 22/09 A2997 RMK AC1 AC TR SLP150 DENSITY ALT 800FT
8:00 pm
V
75 °F 30 mi - 250° 250° 3 kt METAR CYYJ 020300Z 25003KT 140V300 30SM FEW030 FEW120 24/10 A2997 RMK CU1AC1 CU TR AC TR SLP151 DENSITY ALT 1100FT
7:00 pm
V
77 °F 30 mi - 180° 180° 7 kt METAR CYYJ 020200Z 18007KT 30SM FEW030 25/09 A2997 RMK CU1 CU TR SLP151 DENSITY ALT 1200FT
6:00 pm
V
75 °F 30 mi - 120° 120° 7 kt METAR CYYJ 020100Z 12007KT 30SM FEW030 24/11 A2999 RMK CU1 CU TR SLP156 DENSITY ALT 1100FT
5:00 pm
V
72 °F 30 mi - 110° 110° 9 kt METAR CYYJ 020000Z 11009KT 30SM FEW030 22/11 A3001 RMK CU1 CU TR SLP163 DENSITY ALT 900FT
4:00 pm
V
72 °F 30 mi - 110° 110° 8 kt METAR CYYJ 012300Z 11008KT 30SM FEW030 22/12 A3002 RMK CU1 CU TR SLP168 DENSITY ALT 800FT
3:00 pm
V
70 °F 30 mi - 130° 130° 9 kt METAR CYYJ 012200Z 13009KT 30SM FEW030TCU FEW250 21/13 A3004 RMK TCU1CI1 TCU TR CI TR SLP174 DENSITY ALT 700FT
2:00 pm
V
66 °F 30 mi - 120° 120° 8 kt METAR CYYJ 012100Z 12008KT 30SM FEW030TCU FEW250 19/13 A3006 RMK TCU1CI1 TCU TR CI TR SLP181 DENSITY ALT 500FT
1:00 pm
V
66 °F 30 mi - 130° 130° 7 kt METAR CYYJ 012000Z 13007KT 30SM FEW030TCU FEW250 19/13 A3007 RMK TCU1CI1 CI TR SLP183 DENSITY ALT 400FT
12:00 pm
V
64 °F 30 mi - 120° 120° 7 kt METAR CYYJ 011900Z 12007KT 30SM FEW030 18/12 A3007 RMK CU1 SLP185 DENSITY ALT 300FT
11:00 am
V
64 °F 30 mi - 120° 120° 7 kt METAR CYYJ 011800Z 12007KT 30SM FEW030 18/13 A3007 RMK CU1 CU TR SLP185 DENSITY ALT 300FT
10:00 am
V
63 °F 30 mi - 110° 110° 6 kt METAR CYYJ 011700Z 11006KT 30SM FEW030 17/13 A3007 RMK CU1 CU TR SLP185 DENSITY ALT 200FT
9:00 am
V
61 °F 30 mi - 110° 110° 5 kt METAR CYYJ 011600Z 11005KT 30SM FEW025 FEW080 16/13 A3007 RMK CU1AC1 CU TR AC TR SLP185 DENSITY ALT 100FT
8:00 am
V
61 °F 30 mi - 090° 090° 4 kt METAR CYYJ 011500Z 09004KT 30SM SCT062 16/13 A3007 RMK SC3 SLP184 DENSITY ALT 100FT
7:00 am
V
61 °F 30 mi - 320° 320° 5 kt METAR CYYJ 011400Z 32005KT 30SM FEW063 FEW120 16/14 A3007 RMK SC2AC1 AC TR SLP183 DENSITY ALT 100FT
6:00 am
V
57 °F 30 mi - 240° 240° 3 kt METAR CYYJ 011300Z 24003KT 30SM SCT064 14/14 A3006 RMK SC3 SLP180
5:00 am
V
54 °F 30 mi - Var 000° 0 kt METAR CYYJ 011200Z 00000KT 30SM FEW063 12/12 A3005 RMK SC1 SLP179
4:00 am
V
54 °F 20 mi - Var 000° 0 kt METAR CYYJ 011100Z 00000KT 20SM FEW050 FEW065 12/12 A3005 RMK SC1SC1 SLP178
3:00 am
V
54 °F 20 mi - 140° 140° 2 kt METAR CYYJ 011000Z 14002KT 20SM FEW061 FEW100 12/12 A3005 RMK SC1AC1 AC TR SLP177
2:00 am
V
54 °F 20 mi - 130° 130° 4 kt METAR CYYJ 010900Z 13004KT 20SM FEW050 FEW100 12/12 A3005 RMK SC1AC1 SC TR AC TR SLP177
1:00 am
V
55 °F 20 mi - Var 000° 0 kt METAR CYYJ 010800Z 00000KT 20SM FEW050 FEW120 13/13 A3005 RMK SC1AC1 SC TR AC TR SLP177
12:00 am
V
57 °F 20 mi - Var 000° 0 kt METAR CYYJ 010700Z 00000KT 20SM FEW050 FEW120 14/12 A3005 RMK SC1AC1 SC TR AC TR SLP179

30. Juni 2022

Uhrzeit Code Wetter Temp. Sichtweite Wolkendecke Wind METAR/SPECI
11:00 pm
V
57 °F 20 mi - 100° 100° 2 kt METAR CYYJ 010600Z 10002KT 20SM FEW052 14/12 A3005 RMK SC1 SLP178
10:00 pm
V
59 °F 30 mi - 140° 140° 2 kt METAR CYYJ 010500Z 14002KT 30SM FEW052 FEW100 15/11 A3005 RMK SC1AC1 AC TR SLP178
9:00 pm
V
63 °F 30 mi - 090° 090° 4 kt METAR CYYJ 010400Z 09004KT 30SM FEW040 FEW100 17/11 A3005 RMK SC1AC1 SC TR AC TR SLP176 DENSITY ALT 200FT
8:00 pm
V
68 °F 30 mi - 090° 090° 4 kt METAR CYYJ 010300Z 09004KT 30SM FEW025TCU FEW040 20/11 A3005 RMK TCU1SC1 TCU TR SC TR TCU TOPS SE SLP178 DENSITY ALT 500FT
7:00 pm
V
70 °F 30 mi - 100° 100° 6 kt METAR CYYJ 010200Z 10006KT 30SM FEW025TCU FEW040 FEW200 21/11 A3005 RMK TCU1SC1CI1 TCU TR SC TR SLP179 DENSITY ALT 600FT
6:00 pm
V
70 °F 30 mi - 120° 120° 8 kt METAR CYYJ 010100Z 12008KT 30SM FEW030 FEW200 21/11 A3007 RMK CU1CI1 CU TR SLP183 DENSITY ALT 600FT
5:00 pm
V
72 °F 30 mi - 110° 110° 7 kt METAR CYYJ 010000Z 11007KT 30SM FEW035 FEW200 22/12 A3008 RMK CU1CI1 CI TR SLP187 DENSITY ALT 700FT
4:00 pm
V
72 °F 30 mi - 090° 090° 6 kt METAR CYYJ 302300Z 09006KT 040V120 30SM FEW035 FEW250 22/12 A3009 RMK CU1CI1 SLP191 DENSITY ALT 800FT
3:00 pm
V
70 °F 30 mi - 100° 100° 6 kt METAR CYYJ 302200Z 10006KT 30SM FEW035 FEW250 21/12 A3010 RMK CU1CI1 CI TR SLP196 DENSITY ALT 700FT
2:00 pm
V
72 °F 30 mi - 060° 060° 7 kt METAR CYYJ 302100Z 06007KT 040V110 30SM FEW030 FEW250 22/12 A3011 RMK CU1CI1 CI TR SLP199 DENSITY ALT 700FT
1:00 pm
V
70 °F 30 mi - 080° 080° 6 kt METAR CYYJ 302000Z 08006KT 30SM FEW030 FEW180 FEW250 21/12 A3012 RMK CU1AC1CI1 AC TR CI TR SLP201 DENSITY ALT 600FT
12:00 pm
V
70 °F 30 mi - 070° 070° 5 kt METAR CYYJ 301900Z 07005KT 040V140 30SM FEW030 FEW160 FEW250 21/12 A3013 RMK CU1AC1CI1 AC TR CI TR SLP206 DENSITY ALT 600FT
11:00 am
V
68 °F 30 mi - 070° 070° 6 kt METAR CYYJ 301800Z 07006KT 060V130 30SM FEW028 FEW040 FEW250 20/11 A3014 RMK CU2SC1CI1 SC TR CI TR SLP209 DENSITY ALT 500FT
10:00 am
V
68 °F 30 mi - Var 000° 0 kt METAR CYYJ 301700Z 00000KT 30SM FEW028 FEW040 FEW250 20/12 A3015 RMK CU1SC1CI1 CI TR SLP211 DENSITY ALT 400FT
9:00 am
V
63 °F 30 mi - 290° 290° 4 kt METAR CYYJ 301600Z 29004KT 30SM FEW028 FEW080 FEW220 17/12 A3015 RMK CU1AC1CC1 AC TR CC TR SLP213 DENSITY ALT 100FT
8:00 am
V
59 °F 30 mi - 280° 280° 4 kt METAR CYYJ 301500Z 28004KT 30SM FEW025 FEW070 FEW200 15/13 A3016 RMK CU1AC1CC1 CU TR AC TR SLP214
Ältere Daten

Laden Sie unsere App herunter

Einfacher Zugriff auf das gesamte Flugwetter auf Ihrem Mobiltelefon und Tablet.
Mit vielen Funktionen, die auf der Website nicht verfügbar sind, wie Offline-Unterstützung und eine persönliche Flughafenliste.

Wir und Dritte verfolgen dein Internetverhalten auf unserer Website mit Cookies. Wenn du fortfährst, gehen wir davon aus, dass du mit unserer Cookie-Richtlinie einverstanden bist. Mehr erfahren